createdAt,value
2023-04-03T00:01:23.893Z,55.58
2023-04-03T00:03:53.994Z,56.16
2023-04-03T00:06:24.317Z,56.03
2023-04-03T00:08:57.460Z,55.88
2023-04-03T00:11:27.501Z,55.96
2023-04-03T00:13:57.458Z,55.75
2023-04-03T00:16:27.414Z,55.92
2023-04-03T00:18:57.386Z,55.65
2023-04-03T00:21:27.361Z,55.71
2023-04-03T00:23:59.887Z,56.46
2023-04-03T00:26:29.798Z,56.07
2023-04-03T00:28:59.834Z,56.15
2023-04-03T00:31:30.735Z,56.38
2023-04-03T00:34:00.782Z,56.32
2023-04-03T00:36:30.916Z,56.35
2023-04-03T00:39:03.553Z,56.21
2023-04-03T00:41:33.636Z,56.15
2023-04-03T00:44:04.373Z,56.46
2023-04-03T00:46:34.357Z,56.28
2023-04-03T00:49:04.440Z,56.29
2023-04-03T00:51:34.422Z,56.48
2023-04-03T00:54:10.495Z,56.25
2023-04-03T00:56:42.500Z,56.24
2023-04-03T00:59:17.150Z,56.47
2023-04-03T01:01:49.205Z,56.78
2023-04-03T01:04:31.207Z,56.70
2023-04-03T01:07:06.957Z,56.05
2023-04-03T01:09:40.722Z,56.12
2023-04-03T01:12:18.426Z,56.42
2023-04-03T01:14:53.439Z,56.05
2023-04-03T01:17:35.300Z,55.72
2023-04-03T01:20:36.947Z,55.89
2023-04-03T01:23:26.194Z,55.41
2023-04-03T01:26:01.341Z,55.53
2023-04-03T01:28:35.131Z,56.18
2023-04-03T01:31:19.229Z,55.66
2023-04-03T01:33:53.622Z,55.88
2023-04-03T01:36:28.280Z,55.78
2023-04-03T01:39:00.474Z,55.88
2023-04-03T01:41:31.563Z,55.67
2023-04-03T01:44:11.043Z,56.41
2023-04-03T01:46:42.520Z,56.49
2023-04-03T01:49:15.198Z,56.50
2023-04-03T01:51:45.272Z,56.93
2023-04-03T01:54:15.639Z,56.68
2023-04-03T01:56:45.709Z,57.02
2023-04-03T01:59:18.146Z,57.74
2023-04-03T02:01:48.725Z,57.76
2023-04-03T02:04:21.377Z,57.99
2023-04-03T02:06:51.426Z,58.05
2023-04-03T02:09:21.666Z,58.13
2023-04-03T02:11:51.674Z,58.29
2023-04-03T02:14:22.976Z,58.28
2023-04-03T02:16:52.997Z,58.32
2023-04-03T02:19:27.968Z,58.74
2023-04-03T02:21:57.972Z,59.00
2023-04-03T02:24:28.572Z,58.96
2023-04-03T02:26:58.506Z,59.05
2023-04-03T02:29:29.198Z,59.34
2023-04-03T02:31:59.195Z,59.27
2023-04-03T02:34:31.736Z,59.29
2023-04-03T02:37:03.854Z,58.91
2023-04-03T02:39:33.951Z,59.51
2023-04-03T02:42:04.516Z,59.69
2023-04-03T02:44:34.486Z,59.85
2023-04-03T02:47:04.386Z,60.00
2023-04-03T02:49:37.157Z,59.58
2023-04-03T02:52:07.356Z,60.18
2023-04-03T02:54:37.341Z,60.05
2023-04-03T02:57:10.834Z,60.53
2023-04-03T02:59:41.942Z,60.51
2023-04-03T03:02:14.555Z,60.39
2023-04-03T03:04:47.120Z,60.67
2023-04-03T03:07:17.102Z,60.85
2023-04-03T03:09:47.042Z,60.11
2023-04-03T03:12:17.041Z,60.47
2023-04-03T03:14:46.959Z,61.18
2023-04-03T03:17:16.961Z,60.81
2023-04-03T03:19:49.598Z,60.48
2023-04-03T03:22:20.755Z,61.39
2023-04-03T03:24:50.749Z,60.74
2023-04-03T03:27:21.113Z,60.75
2023-04-03T03:29:51.325Z,61.33
2023-04-03T03:32:21.520Z,60.86
2023-04-03T03:34:54.771Z,61.40
2023-04-03T03:37:24.728Z,61.42
2023-04-03T03:39:54.701Z,61.54
2023-04-03T03:42:24.818Z,61.49
2023-04-03T03:44:54.916Z,61.58
2023-04-03T03:47:24.948Z,61.46
2023-04-03T03:49:57.635Z,61.85
2023-04-03T03:52:27.764Z,62.28
2023-04-03T03:54:58.240Z,62.04
2023-04-03T03:57:29.952Z,61.61
2023-04-03T04:00:00.154Z,62.03
2023-04-03T04:02:30.474Z,61.94
2023-04-03T04:05:03.292Z,61.94
2023-04-03T04:07:33.553Z,61.66
2023-04-03T04:10:04.727Z,61.54
2023-04-03T04:12:36.699Z,61.53
2023-04-03T04:15:07.525Z,61.98
2023-04-03T04:17:38.497Z,61.82
2023-04-03T04:20:15.181Z,61.87
2023-04-03T04:22:45.332Z,62.18
2023-04-03T04:25:15.864Z,61.83
2023-04-03T04:27:46.000Z,62.15
2023-04-03T04:30:18.494Z,61.71
2023-04-03T04:32:51.479Z,61.66
2023-04-03T04:35:24.449Z,61.65
2023-04-03T04:37:55.897Z,61.83
2023-04-03T04:40:26.117Z,61.70
2023-04-03T04:42:56.722Z,61.44
2023-04-03T04:45:26.783Z,61.49
2023-04-03T04:47:59.395Z,61.60
2023-04-03T04:50:32.395Z,61.72
2023-04-03T04:53:02.433Z,61.73
2023-04-03T04:55:32.565Z,61.57
2023-04-03T04:58:02.604Z,61.65
2023-04-03T05:00:32.808Z,61.65
2023-04-03T05:03:03.318Z,62.18
2023-04-03T05:05:36.912Z,62.08
2023-04-03T05:08:07.467Z,62.16
2023-04-03T05:10:38.071Z,61.75
2023-04-03T05:13:08.033Z,61.67
2023-04-03T05:15:38.307Z,61.69
2023-04-03T05:18:08.741Z,62.09
2023-04-03T05:20:41.982Z,62.00
2023-04-03T05:23:13.228Z,62.30
2023-04-03T05:25:45.059Z,61.83
2023-04-03T05:28:16.115Z,61.93
2023-04-03T05:30:46.262Z,61.86
2023-04-03T05:33:16.216Z,61.82
2023-04-03T05:35:55.551Z,61.64
2023-04-03T05:38:30.624Z,61.24
2023-04-03T05:41:01.926Z,61.19
2023-04-03T05:43:32.085Z,61.75
2023-04-03T05:46:02.391Z,61.51
2023-04-03T05:48:33.191Z,60.54
2023-04-03T05:51:05.785Z,61.07
2023-04-03T05:53:40.010Z,60.53
2023-04-03T05:56:10.813Z,60.67
2023-04-03T05:58:43.378Z,60.47
2023-04-03T06:01:13.422Z,60.76
2023-04-03T06:03:43.992Z,60.22
2023-04-03T06:06:18.990Z,60.33
2023-04-03T06:08:49.051Z,60.12
2023-04-03T06:11:18.978Z,60.52
2023-04-03T06:13:49.111Z,60.16
2023-04-03T06:16:20.989Z,60.20
2023-04-03T06:18:51.249Z,60.31
2023-04-03T06:21:23.809Z,60.36
2023-04-03T06:23:53.760Z,60.16
2023-04-03T06:26:23.721Z,60.40
2023-04-03T06:28:53.936Z,61.93
2023-04-03T06:31:24.177Z,61.62
2023-04-03T06:33:54.075Z,62.14
2023-04-03T06:36:26.745Z,60.66
2023-04-03T06:38:56.664Z,60.88
2023-04-03T06:41:27.429Z,60.49
2023-04-03T06:43:58.534Z,60.22
2023-04-03T06:46:30.703Z,60.25
2023-04-03T06:49:00.809Z,60.05
2023-04-03T06:51:34.048Z,59.71
2023-04-03T06:54:04.214Z,59.65
2023-04-03T06:56:34.423Z,59.85
2023-04-03T06:59:04.441Z,59.70
2023-04-03T07:01:35.265Z,59.88
2023-04-03T07:04:05.337Z,59.88
2023-04-03T07:06:38.657Z,59.79
2023-04-03T07:09:08.848Z,60.01
2023-04-03T07:11:39.492Z,59.96
2023-04-03T07:14:09.539Z,59.91
2023-04-03T07:16:41.035Z,59.88
2023-04-03T07:19:12.644Z,60.07
2023-04-03T07:21:45.175Z,60.15
2023-04-03T07:24:16.726Z,60.04
2023-04-03T07:26:47.646Z,59.43
2023-04-03T07:29:17.969Z,59.20
2023-04-03T07:31:48.217Z,58.76
2023-04-03T07:34:18.322Z,59.37
2023-04-03T07:36:50.937Z,59.25
2023-04-03T07:39:21.041Z,60.08
2023-04-03T07:41:51.039Z,59.80
2023-04-03T07:44:21.277Z,60.30
2023-04-03T07:46:51.667Z,59.92
2023-04-03T07:49:24.154Z,60.11
2023-04-03T07:51:56.857Z,60.11
2023-04-03T07:54:27.004Z,59.67
2023-04-03T07:56:57.936Z,59.35
2023-04-03T07:59:27.983Z,59.37
2023-04-03T08:01:58.058Z,59.09
2023-04-03T08:04:28.357Z,59.14
2023-04-03T08:07:00.990Z,59.07
2023-04-03T08:09:31.305Z,58.66
2023-04-03T08:12:02.248Z,58.09
2023-04-03T08:14:35.566Z,58.31
2023-04-03T08:17:06.222Z,57.67
2023-04-03T08:19:36.277Z,57.89
2023-04-03T08:22:09.091Z,57.68
2023-04-03T08:24:41.093Z,57.77
2023-04-03T08:27:15.943Z,57.11
2023-04-03T08:29:46.874Z,56.75
2023-04-03T08:32:17.103Z,56.68
2023-04-03T08:34:47.435Z,56.73
2023-04-03T08:37:20.264Z,57.13
2023-04-03T08:39:51.255Z,55.32
2023-04-03T08:42:38.161Z,55.09
2023-04-03T08:45:16.524Z,55.02
2023-04-03T08:47:57.583Z,54.85
2023-04-03T08:50:34.030Z,54.23
2023-04-03T08:53:08.946Z,54.31
2023-04-03T08:55:46.456Z,54.01
2023-04-03T08:58:20.583Z,53.37
2023-04-03T09:00:54.759Z,51.77
2023-04-03T09:03:26.172Z,51.77
2023-04-03T09:06:04.410Z,51.39
2023-04-03T09:08:44.463Z,51.58
2023-04-03T09:11:25.041Z,50.90
2023-04-03T09:14:04.131Z,51.42
2023-04-03T09:16:47.143Z,50.15
2023-04-03T09:19:27.570Z,50.19
2023-04-03T09:21:59.966Z,49.77
2023-04-03T09:24:36.723Z,49.54
2023-04-03T09:27:11.418Z,49.63
2023-04-03T09:29:45.893Z,49.13
2023-04-03T09:32:24.852Z,49.20
2023-04-03T09:35:01.543Z,49.89
2023-04-03T09:37:41.337Z,49.69
2023-04-03T09:40:36.474Z,49.19
2023-04-03T09:43:27.490Z,48.85
2023-04-03T09:45:59.122Z,48.46
2023-04-03T09:48:29.909Z,48.40
2023-04-03T09:51:04.235Z,46.94
2023-04-03T09:53:41.009Z,47.22
2023-04-03T09:56:26.887Z,47.62
2023-04-03T09:59:18.051Z,46.06
2023-04-03T10:02:02.039Z,46.48
2023-04-03T10:04:43.943Z,45.84
2023-04-03T10:07:33.371Z,46.11
2023-04-03T10:10:19.000Z,44.26
2023-04-03T10:12:52.046Z,42.87
2023-04-03T10:15:22.744Z,42.04
2023-04-03T10:18:08.761Z,41.20
2023-04-03T10:20:51.067Z,40.77
2023-04-03T10:23:27.303Z,40.26
2023-04-03T10:26:15.913Z,39.91
2023-04-03T10:29:00.503Z,40.68
2023-04-03T10:31:41.732Z,40.41
2023-04-03T10:34:25.615Z,39.47
2023-04-03T10:37:07.808Z,38.08
2023-04-03T10:39:48.874Z,36.80
2023-04-03T10:42:28.351Z,36.64
2023-04-03T10:45:18.984Z,35.76
2023-04-03T10:48:04.135Z,35.82
2023-04-03T10:50:46.779Z,35.56
2023-04-03T10:53:29.794Z,35.33
2023-04-03T10:56:10.239Z,34.69
2023-04-03T10:58:46.944Z,33.58
2023-04-03T11:01:27.234Z,34.68
2023-04-03T11:04:01.321Z,35.05
2023-04-03T11:06:42.107Z,35.67
2023-04-03T11:09:25.788Z,35.45
2023-04-03T11:12:01.491Z,35.26
2023-04-03T11:14:36.648Z,35.64
2023-04-03T11:17:23.145Z,35.16
2023-04-03T11:20:04.051Z,36.29
2023-04-03T11:22:38.723Z,36.08
2023-04-03T11:25:21.149Z,36.38
2023-04-03T11:27:57.795Z,36.74
2023-04-03T11:30:34.608Z,35.42
2023-04-03T11:33:28.754Z,34.64
2023-04-03T11:36:12.559Z,35.62
2023-04-03T11:38:54.788Z,34.64
2023-04-03T11:41:31.742Z,35.45
2023-04-03T11:44:05.135Z,36.32
2023-04-03T11:46:57.183Z,36.40
2023-04-03T11:50:00.490Z,35.60
2023-04-03T11:53:00.594Z,35.61
2023-04-03T11:55:48.951Z,35.90
2023-04-03T11:58:20.573Z,35.05
2023-04-03T12:01:03.724Z,35.11
2023-04-03T12:03:57.027Z,36.49
2023-04-03T12:06:57.563Z,37.88
2023-04-03T12:09:34.220Z,38.72
2023-04-03T12:12:27.635Z,38.65
2023-04-03T12:14:57.778Z,38.08
2023-04-03T12:17:32.001Z,36.07
2023-04-03T12:20:02.115Z,36.31
2023-04-03T12:22:32.215Z,36.47
2023-04-03T12:25:51.016Z,36.74
2023-04-03T12:28:24.482Z,37.21
2023-04-03T12:30:54.511Z,37.63
2023-04-03T12:33:49.411Z,37.99
2023-04-03T12:36:32.809Z,38.28
2023-04-03T12:39:15.561Z,38.03
2023-04-03T12:41:57.955Z,37.81
2023-04-03T12:44:55.825Z,37.94
2023-04-03T12:47:34.212Z,38.42
2023-04-03T12:50:07.466Z,38.77
2023-04-03T12:52:45.593Z,38.64
2023-04-03T12:55:22.910Z,37.78
2023-04-03T12:57:53.319Z,37.72
2023-04-03T13:00:34.490Z,38.79
2023-04-03T13:03:06.849Z,38.38
2023-04-03T13:05:38.842Z,38.89
2023-04-03T13:08:17.064Z,39.43
2023-04-03T13:10:58.865Z,39.53
2023-04-03T13:13:29.079Z,38.77
2023-04-03T13:16:03.499Z,39.81
2023-04-03T13:18:36.446Z,38.36
2023-04-03T13:21:11.511Z,39.00
2023-04-03T13:23:49.174Z,38.58
2023-04-03T13:26:24.010Z,38.81
2023-04-03T13:28:54.678Z,38.69
2023-04-03T13:31:31.644Z,37.95
2023-04-03T13:34:07.588Z,38.10
2023-04-03T13:36:41.558Z,36.83
2023-04-03T13:39:26.494Z,36.40
2023-04-03T13:41:58.802Z,35.44
2023-04-03T13:44:33.702Z,33.81
2023-04-03T13:47:22.063Z,31.03
2023-04-03T13:50:05.084Z,29.09
2023-04-03T13:52:42.340Z,25.33
2023-04-03T13:55:26.284Z,23.79
2023-04-03T13:58:00.900Z,21.04
2023-04-03T14:00:35.201Z,27.61
2023-04-03T14:03:17.425Z,30.93
2023-04-03T14:05:47.675Z,32.37
2023-04-03T14:08:17.956Z,33.18
2023-04-03T14:10:52.894Z,32.89
2023-04-03T14:13:24.712Z,34.35
2023-04-03T14:16:00.462Z,33.73
2023-04-03T14:18:41.931Z,33.59
2023-04-03T14:21:14.767Z,34.01
2023-04-03T14:23:44.736Z,34.65
2023-04-03T14:26:18.803Z,35.68
2023-04-03T14:28:51.514Z,36.21
2023-04-03T14:31:23.015Z,36.63
2023-04-03T14:33:56.025Z,37.96
2023-04-03T14:36:29.251Z,37.66
2023-04-03T14:39:00.111Z,36.26
2023-04-03T14:41:30.970Z,34.47
2023-04-03T14:44:01.167Z,29.96
2023-04-03T14:46:54.410Z,31.84
2023-04-03T14:49:30.572Z,35.39
2023-04-03T14:52:01.568Z,35.99
2023-04-03T14:54:32.569Z,36.35
2023-04-03T14:57:04.426Z,36.84
2023-04-03T14:59:35.682Z,37.32
2023-04-03T15:02:08.335Z,36.35
2023-04-03T15:04:41.156Z,34.85
2023-04-03T15:07:12.441Z,35.53
2023-04-03T15:09:42.369Z,29.57
2023-04-03T15:14:51.862Z,27.58
2023-04-03T15:17:26.623Z,30.34
2023-04-03T15:19:59.484Z,32.76
2023-04-03T15:22:29.693Z,32.79
2023-04-03T15:24:59.635Z,31.30
2023-04-03T15:27:29.792Z,32.99
2023-04-03T15:29:59.885Z,34.46
2023-04-03T15:32:31.255Z,31.90
2023-04-03T15:35:05.310Z,30.44
2023-04-03T15:37:35.391Z,28.87
2023-04-03T15:40:06.027Z,25.76
2023-04-03T15:42:37.005Z,25.16
2023-04-03T15:45:07.642Z,27.02
2023-04-03T15:47:37.790Z,27.58
2023-04-03T15:50:11.527Z,29.28
2023-04-03T15:52:41.583Z,30.57
2023-04-03T15:55:12.085Z,31.67
2023-04-03T15:57:42.053Z,32.41
2023-04-03T16:00:13.692Z,31.75
2023-04-03T16:02:44.909Z,26.08
2023-04-03T16:05:19.332Z,25.11
2023-04-03T16:07:50.672Z,24.90
2023-04-03T16:10:22.236Z,23.90
2023-04-03T16:12:52.532Z,24.60
2023-04-03T16:15:22.804Z,23.68
2023-04-03T16:17:52.896Z,27.07
2023-04-03T16:20:25.870Z,27.71
2023-04-03T16:22:56.727Z,28.77
2023-04-03T16:25:26.815Z,28.40
2023-04-03T16:27:57.010Z,26.46
2023-04-03T16:30:27.414Z,25.76
2023-04-03T16:32:57.762Z,25.03
2023-04-03T16:35:30.427Z,25.05
2023-04-03T16:38:00.432Z,25.21
2023-04-03T16:40:30.462Z,25.59
2023-04-03T16:43:00.594Z,26.07
2023-04-03T16:45:30.696Z,26.70
2023-04-03T16:48:01.000Z,27.42
2023-04-03T16:50:33.843Z,28.11
2023-04-03T16:53:04.504Z,28.84
2023-04-03T16:55:34.439Z,29.69
2023-04-03T16:58:04.382Z,29.76
2023-04-03T17:00:35.058Z,29.28
2023-04-03T17:03:05.055Z,30.58
2023-04-03T17:05:38.242Z,30.09
2023-04-03T17:08:08.424Z,31.01
2023-04-03T17:10:38.394Z,30.84
2023-04-03T17:13:09.200Z,31.20
2023-04-03T17:15:40.202Z,31.18
2023-04-03T17:18:11.458Z,31.02
2023-04-03T17:20:44.325Z,31.57
2023-04-03T17:23:14.340Z,32.63
2023-04-03T17:25:44.321Z,33.27
2023-04-03T17:28:14.343Z,33.34
2023-04-03T17:30:44.318Z,34.12
2023-04-03T17:33:14.333Z,34.43
2023-04-03T17:35:46.978Z,35.25
2023-04-03T17:38:17.014Z,35.20
2023-04-03T17:40:47.588Z,35.17
2023-04-03T17:43:17.648Z,35.77
2023-04-03T17:45:47.666Z,35.81
2023-04-03T17:48:20.062Z,36.29
2023-04-03T17:50:52.756Z,36.12
2023-04-03T17:53:22.922Z,36.63
2023-04-03T17:55:53.115Z,36.95
2023-04-03T17:58:23.181Z,36.87
2023-04-03T18:00:54.475Z,37.08
2023-04-03T18:03:24.459Z,37.24
2023-04-03T18:05:57.061Z,37.33
2023-04-03T18:08:27.124Z,37.50
2023-04-03T18:10:57.170Z,37.56
2023-04-03T18:13:27.138Z,37.58
2023-04-03T18:15:57.263Z,37.76
2023-04-03T18:18:27.355Z,38.08
2023-04-03T18:20:59.937Z,38.18
2023-04-03T18:23:35.216Z,38.29
2023-04-03T18:26:06.991Z,39.08
2023-04-03T18:28:36.925Z,38.60
2023-04-03T18:31:08.299Z,38.62
2023-04-03T18:33:38.344Z,39.08
2023-04-03T18:36:11.618Z,38.80
2023-04-03T18:38:41.685Z,39.27
2023-04-03T18:41:12.214Z,39.01
2023-04-03T18:43:42.555Z,38.79
2023-04-03T18:46:12.711Z,39.23
2023-04-03T18:48:42.789Z,39.50
2023-04-03T18:51:16.892Z,39.37
2023-04-03T18:53:47.375Z,39.51
2023-04-03T18:56:17.553Z,39.65
2023-04-03T18:58:47.542Z,39.47
2023-04-03T19:01:18.316Z,39.08
2023-04-03T19:03:50.487Z,39.89
2023-04-03T19:06:23.387Z,39.40
2023-04-03T19:08:57.114Z,40.81
2023-04-03T19:11:29.643Z,39.73
2023-04-03T19:16:33.850Z,39.42
2023-04-03T19:19:04.768Z,39.19
2023-04-03T19:21:41.415Z,39.36
2023-04-03T19:24:12.920Z,39.76
2023-04-03T19:26:43.911Z,39.55
2023-04-03T19:29:14.630Z,39.81
2023-04-03T19:31:44.881Z,39.00
2023-04-03T19:34:17.444Z,39.63
2023-04-03T19:36:52.336Z,39.20
2023-04-03T19:39:22.648Z,39.53
2023-04-03T19:41:53.190Z,39.94
2023-04-03T19:44:23.620Z,40.27
2023-04-03T19:46:56.469Z,40.24
2023-04-03T19:49:26.980Z,40.69
2023-04-03T19:52:00.027Z,40.67
2023-04-03T19:54:30.487Z,40.44
2023-04-03T19:57:01.336Z,40.43
2023-04-03T19:59:31.936Z,40.39
2023-04-03T20:02:02.345Z,40.89
2023-04-03T20:04:32.626Z,41.11
2023-04-03T20:07:05.751Z,40.93
2023-04-03T20:09:36.299Z,40.49
2023-04-03T20:12:09.632Z,40.87
2023-04-03T20:14:41.256Z,40.94
2023-04-03T20:17:11.679Z,40.95
2023-04-03T20:19:41.989Z,40.88
2023-04-03T20:22:14.861Z,41.16
2023-04-03T20:24:45.127Z,41.32
2023-04-03T20:27:16.824Z,41.81
2023-04-03T20:29:49.659Z,41.71
2023-04-03T20:32:24.444Z,41.93
2023-04-03T20:35:03.446Z,41.90
2023-04-03T20:37:38.862Z,42.66
2023-04-03T20:40:13.071Z,42.66
2023-04-03T20:42:43.650Z,42.83
2023-04-03T20:45:14.474Z,43.27
2023-04-03T20:47:44.958Z,43.62
2023-04-03T20:50:15.744Z,43.64
2023-04-03T20:52:48.921Z,43.52
2023-04-03T20:55:22.759Z,43.68
2023-04-03T20:57:54.748Z,43.69
2023-04-03T21:00:25.999Z,43.95
2023-04-03T21:02:57.343Z,44.35
2023-04-03T21:05:31.035Z,44.46
2023-04-03T21:08:33.594Z,44.72
2023-04-03T21:11:34.121Z,44.67
2023-04-03T21:14:36.896Z,45.05
2023-04-03T21:17:06.544Z,45.40
2023-04-03T21:19:46.214Z,45.70
2023-04-03T21:22:17.656Z,45.40
2023-04-03T21:24:48.612Z,45.59
2023-04-03T21:27:18.551Z,45.94
2023-04-03T21:29:49.328Z,45.95
2023-04-03T21:32:19.289Z,45.87
2023-04-03T21:34:51.958Z,45.87
2023-04-03T21:37:21.928Z,46.38
2023-04-03T21:39:52.025Z,46.11
2023-04-03T21:42:22.058Z,46.58
2023-04-03T21:44:55.142Z,46.59
2023-04-03T21:47:28.196Z,46.73
2023-04-03T21:50:02.217Z,46.94
2023-04-03T21:52:35.183Z,47.04
2023-04-03T21:55:05.598Z,46.73
2023-04-03T21:57:35.950Z,47.19
2023-04-03T22:00:11.122Z,46.65
2023-04-03T22:02:42.770Z,47.13
2023-04-03T22:05:15.994Z,47.34
2023-04-03T22:07:47.999Z,46.92
2023-04-03T22:10:18.375Z,46.69
2023-04-03T22:12:48.263Z,47.16
2023-04-03T22:15:18.487Z,46.67
2023-04-03T22:17:48.615Z,46.80
2023-04-03T22:20:21.460Z,46.61
2023-04-03T22:22:52.716Z,46.85
2023-04-03T22:25:22.679Z,47.30
2023-04-03T22:27:52.644Z,47.65
2023-04-03T22:30:23.039Z,47.10
2023-04-03T22:32:53.016Z,47.50
2023-04-03T22:35:25.622Z,47.19
2023-04-03T22:37:56.439Z,47.53
2023-04-03T22:40:26.410Z,48.06
2023-04-03T22:42:56.882Z,48.22
2023-04-03T22:45:27.256Z,47.59
2023-04-03T22:47:58.970Z,47.91
2023-04-03T22:50:32.009Z,47.55
2023-04-03T22:53:02.075Z,47.76
2023-04-03T22:55:32.128Z,47.79
2023-04-03T22:58:02.042Z,47.96
2023-04-03T23:00:32.112Z,48.07
2023-04-03T23:03:02.236Z,47.90
2023-04-03T23:05:34.881Z,48.21
2023-04-03T23:08:04.984Z,48.00
2023-04-03T23:10:35.041Z,48.09
2023-04-03T23:13:04.962Z,48.23
2023-04-03T23:15:34.917Z,48.58
2023-04-03T23:18:05.057Z,48.69
2023-04-03T23:20:37.947Z,48.65
2023-04-03T23:23:08.105Z,49.20
2023-04-03T23:25:38.053Z,49.28
2023-04-03T23:28:08.056Z,49.44
2023-04-03T23:30:38.174Z,49.14
2023-04-03T23:33:08.323Z,49.32
2023-04-03T23:35:46.623Z,49.54
2023-04-03T23:38:17.823Z,49.08
2023-04-03T23:40:48.976Z,49.64
2023-04-03T23:43:18.966Z,49.80
2023-04-03T23:45:48.956Z,49.53
2023-04-03T23:48:18.978Z,49.59
2023-04-03T23:50:51.530Z,49.31
2023-04-03T23:53:21.801Z,49.85
2023-04-03T23:55:51.792Z,49.87
2023-04-03T23:58:21.699Z,49.45
